Carnival Victory — 3FFL8 — position and weather

sailwx.info

Track history (hours):
 
Tides and Currents Weather Stations Pressure Air Temp Water Temp Dewpoint Dewpoint Depression Visibility Wind Speed Wind Dir Waves Ship Positions

Carnival Victory

Operator: Carnival Cruise Lines

Last reported at 2014-Oct-24 00:16 UTC. Time now 2014-Oct-25 08:45 UTC.
Position N 25°18' W 080°02'.

Type: Ship. MMSI: 355263000.

Date/timePositionNaut miles runAvg speedWind from/ knotsBaromVisibWave heightAir tempDewpointWater temp
2014-Oct-24 00:16N 25°18' W 080°02'1013.7
2014-Oct-23 23:33N 25°28' W 080°02'1312.8
2014-Oct-23 22:33N 25°40' W 080°02'9 9.1
2014-Oct-23 21:33N 25°46' W 080°09'1 0.8
2014-Oct-23 20:27N 25°47' W 080°10'0 0.0
2014-Oct-23 19:33N 25°47' W 080°10'0 0.0
2014-Oct-23 18:26N 25°47' W 080°10'0 0.0
2014-Oct-23 17:23N 25°47' W 080°10'0 0.0
2014-Oct-23 16:31N 25°47' W 080°10'0 0.0
2014-Oct-23 15:25N 25°47' W 080°10'0 0.0
2014-Oct-23 14:33N 25°47' W 080°10'0 0.0
2014-Oct-23 13:27N 25°47' W 080°10'0 0.0
2014-Oct-23 12:33N 25°47' W 080°10'0 0.1
2014-Oct-23 11:33N 25°47' W 080°10'8 7.6
2014-Oct-23 10:33N 25°47' W 080°02'1111.5
2014-Oct-23 09:33N 25°53' W 079°51'1413.9
2014-Oct-23 08:33N 26°01' W 079°38'1414.4
2014-Oct-23 07:33N 26°09' W 079°24'1515.4
2014-Oct-23 06:33N 26°17' W 079°10'  
2014-Oct-19 04:33N 26°00' W 078°07'1717.3
2014-Oct-19 03:33N 26°06' W 078°25'1716.4
2014-Oct-19 02:29N 26°12' W 078°44'1616.5
2014-Oct-19 01:30N 26°16' W 079°01'1515.7
2014-Oct-19 00:33N 26°13' W 079°17'1716.9
2014-Oct-18 23:33N 26°04' W 079°33'1817.5
2014-Oct-18 22:33N 25°54' W 079°49'1616.2
2014-Oct-18 21:33N 25°46' W 080°05'5 4.4
2014-Oct-18 20:26N 25°47' W 080°10'0 0.0
2014-Oct-18 19:32N 25°47' W 080°10'2 3.6
2014-Oct-18 19:00N 25°48' W 080°12'2 3.4 340 / 221010.010.8 1.527.023.030.0
2014-Oct-18 18:25N 25°47' W 080°10'2 4.5
2014-Oct-18 18:00N 25°48' W 080°12'2 3.1 340 / 221010.010.8 1.527.023.030.0
2014-Oct-18 17:22N 25°47' W 080°10'2 5.2
2014-Oct-18 17:00N 25°48' W 080°12'2 4.0 340 / 221010.010.8 1.527.023.030.0
2014-Oct-18 16:30N 25°47' W 080°10'0 0.0
2014-Oct-18 15:21N 25°47' W 080°10'0 0.0
2014-Oct-18 14:32N 25°47' W 080°10'0 0.0
2014-Oct-18 13:26N 25°47' W 080°10'0 0.0
2014-Oct-18 12:32N 25°47' W 080°10'0 0.0
2014-Oct-18 11:32N 25°47' W 080°10'6 6.1
2014-Oct-18 10:33N 25°46' W 080°04'1212.3
2014-Oct-18 09:33N 25°35' W 079°60'  
2014-Oct-15 19:00N 18°24' W 077°06'114 9.5 340 / 221010.010.8 1.527.023.030.0
2014-Oct-15 07:00N 19°24' W 075°24'8 8.2 340 / 221010.010.8 1.527.023.030.0
2014-Oct-15 06:00N 19°30' W 075°30'35113.5 340 / 221010.010.8 1.527.023.030.0
2014-Oct-14 04:00N 24°06' W 079°24'   340 / 221010.010.8 1.527.023.030.0
Track history (hours):
 
Tides and Currents Weather Stations Pressure Air Temp Water Temp Dewpoint Dewpoint Depression Visibility Wind Speed Wind Dir Waves Ship Positions

Carnival Victory

Operator: Carnival Cruise Lines

Last reported at 2014-Oct-24 00:16 UTC. Time now 2014-Oct-25 08:45 UTC.
Position N 25°18' W 080°02'.

Type: Ship. MMSI: 355263000.

Date/timePositionNaut miles runAvg speedWind from/ knotsBaromVisibWave heightAir tempDewpointWater temp
2014-Oct-24 00:16N 25°18' W 080°02'1013.7
2014-Oct-23 23:33N 25°28' W 080°02'1312.8
2014-Oct-23 22:33N 25°40' W 080°02'9 9.1
2014-Oct-23 21:33N 25°46' W 080°09'1 0.8
2014-Oct-23 20:27N 25°47' W 080°10'0 0.0
2014-Oct-23 19:33N 25°47' W 080°10'0 0.0
2014-Oct-23 18:26N 25°47' W 080°10'0 0.0
2014-Oct-23 17:23N 25°47' W 080°10'0 0.0
2014-Oct-23 16:31N 25°47' W 080°10'0 0.0
2014-Oct-23 15:25N 25°47' W 080°10'0 0.0
2014-Oct-23 14:33N 25°47' W 080°10'0 0.0
2014-Oct-23 13:27N 25°47' W 080°10'0 0.0
2014-Oct-23 12:33N 25°47' W 080°10'0 0.1
2014-Oct-23 11:33N 25°47' W 080°10'8 7.6
2014-Oct-23 10:33N 25°47' W 080°02'1111.5
2014-Oct-23 09:33N 25°53' W 079°51'1413.9
2014-Oct-23 08:33N 26°01' W 079°38'1414.4
2014-Oct-23 07:33N 26°09' W 079°24'1515.4
2014-Oct-23 06:33N 26°17' W 079°10'  
2014-Oct-19 04:33N 26°00' W 078°07'1717.3
2014-Oct-19 03:33N 26°06' W 078°25'1716.4
2014-Oct-19 02:29N 26°12' W 078°44'1616.5
2014-Oct-19 01:30N 26°16' W 079°01'1515.7
2014-Oct-19 00:33N 26°13' W 079°17'1716.9
2014-Oct-18 23:33N 26°04' W 079°33'1817.5
2014-Oct-18 22:33N 25°54' W 079°49'1616.2
2014-Oct-18 21:33N 25°46' W 080°05'5 4.4
2014-Oct-18 20:26N 25°47' W 080°10'0 0.0
2014-Oct-18 19:32N 25°47' W 080°10'2 3.6
2014-Oct-18 19:00N 25°48' W 080°12'2 3.4 340 / 221010.010.8 1.527.023.030.0
2014-Oct-18 18:25N 25°47' W 080°10'2 4.5
2014-Oct-18 18:00N 25°48' W 080°12'2 3.1 340 / 221010.010.8 1.527.023.030.0
2014-Oct-18 17:22N 25°47' W 080°10'2 5.2
2014-Oct-18 17:00N 25°48' W 080°12'2 4.0 340 / 221010.010.8 1.527.023.030.0
2014-Oct-18 16:30N 25°47' W 080°10'0 0.0
2014-Oct-18 15:21N 25°47' W 080°10'0 0.0
2014-Oct-18 14:32N 25°47' W 080°10'0 0.0
2014-Oct-18 13:26N 25°47' W 080°10'0 0.0
2014-Oct-18 12:32N 25°47' W 080°10'0 0.0
2014-Oct-18 11:32N 25°47' W 080°10'6 6.1
2014-Oct-18 10:33N 25°46' W 080°04'1212.3
2014-Oct-18 09:33N 25°35' W 079°60'  
2014-Oct-15 19:00N 18°24' W 077°06'114 9.5 340 / 221010.010.8 1.527.023.030.0
2014-Oct-15 07:00N 19°24' W 075°24'8 8.2 340 / 221010.010.8 1.527.023.030.0
2014-Oct-15 06:00N 19°30' W 075°30'35113.5 340 / 221010.010.8 1.527.023.030.0
2014-Oct-14 04:00N 24°06' W 079°24'   340 / 221010.010.8 1.527.023.030.0

Dump ship's entire track history